Weather at Frontier Airpark

Public forecast

Using degrees Fahrenheit for public forecast. Weather courtesy of forecast.io.

Closest aviation weather report (METAR) to Frontier Airpark

Closest report is Arlington Municipal Airport, 4.9 nm (9.1 km) NW. Retrieved 2021/10/24 14:56 UTC (38 minutes ago):

KAWO 241456Z AUTO 00000KT 10SM OVC110 09/07 A2909 RMK AO2 SLP854 6//// T00940067 56067 PNO

Closest aviation forecast (TAF) to Frontier Airpark

Closest forecast is Snohomish County (Paine Field) Airport, 15.1 nm (28.0 km) SW. Retrieved 2021/10/24 12:33 UTC (3 hours ago):

TAF KPAE 241131Z 2412/2512 12014G24KT P6SM -RA OVC060 FM242300 16022G32KT P6SM -SHRA OVC040